Aérodrome :
LOGIN :

S'inscrire | Disclaimer

   EN    FR    IT 

 










Légende :    VFR   VFR Marginal   IFR   IFR Intensif   IFR Très Intensif
Visi : 
Plafond : 
>= 8 km
>= 3000ft
5 à 8 km
1000 à 3000 ft
1500m à 5 km
500 à 1000 ft
800 à 1500m
200 à 500 ft
< 800m
< 200 ft
Symboles :   Orages  Brouillard  Fortes neiges  Fortes précipitations  Vent > 20 kt
SIGMETs :   Divers  Orages  Givrage  Turbulence  Onde Orograph.  Cendres Volcan.






- Altitude de l'aérodrome : 28 ft
- Code IATA : HFA


LLHA - Haifa International

METAR N/A
TAF TAF LLHA
Valide du 05 à 12h jusqu'au 06 à 12h UTC


051113Z 0512/0612 14010KT 9999 SCT030
TEMPO 0512/0520 22008KT 5000 TSRA FEW025CB BKN030
PROB30 0520/0606 22008KT 5000 TSRA FEW025CB BKN030
PROB40 0606/0609 9000 -RA BKN025
BECMG 0609/0611 22010KT TX19/0512Z TN15/0604Z
FIR LLLL / Asie



MET'MAP, la Météo Aéronautique d'un coup d'oeil ! - Copyright ORBIFLY Décembre 2007 - Disclaimer

ORBIFLY MET'MAP TEAM :

Programmation & Développement : Alexandra Zaïnal
Sur une idée originale de : Baudouin d'Aumeries
Assistance à la programmation : Marc-Olivier Méhu
Soutien technique & logistique : Manuel Goepfert

Contact : metmap@orbifly.com




SOURCES & CREDITS :

   NOAA